sensor_id;sensor_type;location;lat;lon;timestamp;P1;durP1;ratioP1;P2;durP2;ratioP2
32451;SDS011;45528;52.102;5.242;2023-10-08T00:00:44;5.6;;;1.8;;
32451;SDS011;45528;52.102;5.242;2023-10-08T00:02:21;8.31;;;2.4;;
32451;SDS011;45528;52.102;5.242;2023-10-08T00:03:57;6.7;;;1.9;;
32451;SDS011;45528;52.102;5.242;2023-10-08T00:05:35;7.3;;;1.7;;
32451;SDS011;45528;52.102;5.242;2023-10-08T00:08:48;7.4;;;2.8;;
32451;SDS011;45528;52.102;5.242;2023-10-08T00:10:25;4.3;;;1.6;;
32451;SDS011;45528;52.102;5.242;2023-10-08T00:12:01;7.4;;;2.0;;
32451;SDS011;45528;52.102;5.242;2023-10-08T00:15:14;11.8;;;2.6;;
32451;SDS011;45528;52.102;5.242;2023-10-08T00:16:50;6.9;;;2.1;;
32451;SDS011;45528;52.102;5.242;2023-10-08T00:18:26;3.8;;;1.5;;
32451;SDS011;45528;52.102;5.242;2023-10-08T00:21:39;7.3;;;2.4;;
32451;SDS011;45528;52.102;5.242;2023-10-08T00:23:15;4.8;;;2.0;;
32451;SDS011;45528;52.102;5.242;2023-10-08T00:24:52;7.2;;;2.21;;
32451;SDS011;45528;52.102;5.242;2023-10-08T00:26:28;7.2;;;2.21;;
32451;SDS011;45528;52.102;5.242;2023-10-08T00:29:43;6.1;;;2.6;;
32451;SDS011;45528;52.102;5.242;2023-10-08T00:31:19;8.71;;;2.4;;
32451;SDS011;45528;52.102;5.242;2023-10-08T00:32:55;10.5;;;2.0;;
32451;SDS011;45528;52.102;5.242;2023-10-08T00:36:07;6.8;;;2.1;;
32451;SDS011;45528;52.102;5.242;2023-10-08T00:37:43;11.0;;;2.7;;
32451;SDS011;45528;52.102;5.242;2023-10-08T00:39:20;9.6;;;2.4;;
32451;SDS011;45528;52.102;5.242;2023-10-08T00:42:32;11.2;;;2.0;;
32451;SDS011;45528;52.102;5.242;2023-10-08T00:44:08;11.9;;;2.4;;
32451;SDS011;45528;52.102;5.242;2023-10-08T00:45:45;10.0;;;2.6;;
32451;SDS011;45528;52.102;5.242;2023-10-08T00:48:58;3.1;;;1.9;;
32451;SDS011;45528;52.102;5.242;2023-10-08T00:50:36;6.2;;;2.4;;
32451;SDS011;45528;52.102;5.242;2023-10-08T00:52:13;5.4;;;2.5;;
32451;SDS011;45528;52.102;5.242;2023-10-08T00:53:52;6.5;;;2.31;;
32451;SDS011;45528;52.102;5.242;2023-10-08T00:57:07;9.6;;;1.9;;
32451;SDS011;45528;52.102;5.242;2023-10-08T00:58:43;4.91;;;1.8;;
32451;SDS011;45528;52.102;5.242;2023-10-08T01:00:20;6.9;;;2.5;;
32451;SDS011;45528;52.102;5.242;2023-10-08T01:03:32;8.0;;;2.0;;
32451;SDS011;45528;52.102;5.242;2023-10-08T01:05:08;6.5;;;2.1;;
32451;SDS011;45528;52.102;5.242;2023-10-08T01:06:44;5.7;;;2.31;;
32451;SDS011;45528;52.102;5.242;2023-10-08T01:08:22;5.4;;;1.6;;
32451;SDS011;45528;52.102;5.242;2023-10-08T01:11:36;6.6;;;1.9;;
32451;SDS011;45528;52.102;5.242;2023-10-08T01:13:12;5.2;;;1.9;;
32451;SDS011;45528;52.102;5.242;2023-10-08T01:14:48;7.6;;;2.31;;
32451;SDS011;45528;52.102;5.242;2023-10-08T01:18:01;11.8;;;2.5;;
32451;SDS011;45528;52.102;5.242;2023-10-08T01:19:38;5.2;;;1.8;;
32451;SDS011;45528;52.102;5.242;2023-10-08T01:21:14;9.0;;;2.4;;
32451;SDS011;45528;52.102;5.242;2023-10-08T01:24:29;7.2;;;2.5;;
32451;SDS011;45528;52.102;5.242;2023-10-08T01:26:05;9.6;;;2.6;;
32451;SDS011;45528;52.102;5.242;2023-10-08T01:27:41;6.3;;;2.6;;
32451;SDS011;45528;52.102;5.242;2023-10-08T01:29:17;2.7;;;1.8;;
32451;SDS011;45528;52.102;5.242;2023-10-08T01:32:30;4.7;;;2.5;;
32451;SDS011;45528;52.102;5.242;2023-10-08T01:34:07;2.9;;;1.9;;
32451;SDS011;45528;52.102;5.242;2023-10-08T01:35:44;8.71;;;2.0;;
32451;SDS011;45528;52.102;5.242;2023-10-08T01:38:56;4.3;;;1.8;;
32451;SDS011;45528;52.102;5.242;2023-10-08T01:40:33;4.2;;;2.0;;
32451;SDS011;45528;52.102;5.242;2023-10-08T01:42:09;3.9;;;1.7;;
32451;SDS011;45528;52.102;5.242;2023-10-08T01:45:21;7.6;;;2.4;;
32451;SDS011;45528;52.102;5.242;2023-10-08T01:46:57;5.0;;;2.21;;
32451;SDS011;45528;52.102;5.242;2023-10-08T01:48:33;6.0;;;2.0;;
32451;SDS011;45528;52.102;5.242;2023-10-08T01:51:46;9.31;;;2.5;;
32451;SDS011;45528;52.102;5.242;2023-10-08T01:53:22;9.1;;;2.5;;
32451;SDS011;45528;52.102;5.242;2023-10-08T01:54:58;7.5;;;2.5;;
32451;SDS011;45528;52.102;5.242;2023-10-08T01:56:34;5.9;;;2.1;;
32451;SDS011;45528;52.102;5.242;2023-10-08T01:59:49;5.9;;;2.21;;
32451;SDS011;45528;52.102;5.242;2023-10-08T02:01:25;6.6;;;2.0;;
32451;SDS011;45528;52.102;5.242;2023-10-08T02:03:02;3.5;;;2.21;;
32451;SDS011;45528;52.102;5.242;2023-10-08T02:06:16;10.0;;;2.21;;
32451;SDS011;45528;52.102;5.242;2023-10-08T02:07:52;4.2;;;2.1;;
32451;SDS011;45528;52.102;5.242;2023-10-08T02:09:28;5.0;;;1.9;;
32451;SDS011;45528;52.102;5.242;2023-10-08T02:12:40;9.1;;;2.5;;
32451;SDS011;45528;52.102;5.242;2023-10-08T02:14:17;3.6;;;1.7;;
32451;SDS011;45528;52.102;5.242;2023-10-08T02:15:54;7.4;;;2.21;;
32451;SDS011;45528;52.102;5.242;2023-10-08T02:17:32;5.6;;;2.21;;
32451;SDS011;45528;52.102;5.242;2023-10-08T02:20:46;11.1;;;2.6;;
32451;SDS011;45528;52.102;5.242;2023-10-08T02:22:23;5.5;;;1.7;;
32451;SDS011;45528;52.102;5.242;2023-10-08T02:23:59;5.9;;;2.21;;
32451;SDS011;45528;52.102;5.242;2023-10-08T02:27:12;5.6;;;2.1;;
32451;SDS011;45528;52.102;5.242;2023-10-08T02:28:49;4.3;;;2.5;;
32451;SDS011;45528;52.102;5.242;2023-10-08T02:30:26;7.8;;;2.0;;
32451;SDS011;45528;52.102;5.242;2023-10-08T02:32:03;5.3;;;1.8;;
32451;SDS011;45528;52.102;5.242;2023-10-08T02:35:15;3.6;;;1.7;;
32451;SDS011;45528;52.102;5.242;2023-10-08T02:36:52;4.8;;;2.1;;
32451;SDS011;45528;52.102;5.242;2023-10-08T02:38:28;4.7;;;2.0;;
32451;SDS011;45528;52.102;5.242;2023-10-08T02:41:43;7.2;;;2.5;;
32451;SDS011;45528;52.102;5.242;2023-10-08T02:43:20;6.2;;;2.0;;
32451;SDS011;45528;52.102;5.242;2023-10-08T02:44:56;5.2;;;1.8;;
32451;SDS011;45528;52.102;5.242;2023-10-08T02:48:08;4.8;;;2.1;;
32451;SDS011;45528;52.102;5.242;2023-10-08T02:49:44;6.5;;;2.31;;
32451;SDS011;45528;52.102;5.242;2023-10-08T02:51:20;3.4;;;2.21;;
32451;SDS011;45528;52.102;5.242;2023-10-08T02:52:57;6.5;;;2.21;;
32451;SDS011;45528;52.102;5.242;2023-10-08T02:56:09;4.91;;;2.4;;
32451;SDS011;45528;52.102;5.242;2023-10-08T02:57:46;7.0;;;2.6;;
32451;SDS011;45528;52.102;5.242;2023-10-08T02:59:22;4.41;;;2.31;;
32451;SDS011;45528;52.102;5.242;2023-10-08T03:02:35;7.3;;;2.31;;
32451;SDS011;45528;52.102;5.242;2023-10-08T03:04:11;4.2;;;1.8;;
32451;SDS011;45528;52.102;5.242;2023-10-08T03:05:48;4.3;;;2.0;;
32451;SDS011;45528;52.102;5.242;2023-10-08T03:09:02;6.8;;;2.4;;
32451;SDS011;45528;52.102;5.242;2023-10-08T03:10:39;8.5;;;2.5;;
32451;SDS011;45528;52.102;5.242;2023-10-08T03:12:16;5.6;;;2.21;;
32451;SDS011;45528;52.102;5.242;2023-10-08T03:13:53;6.6;;;2.21;;
32451;SDS011;45528;52.102;5.242;2023-10-08T03:17:05;4.1;;;2.31;;
32451;SDS011;45528;52.102;5.242;2023-10-08T03:18:42;5.3;;;2.21;;
32451;SDS011;45528;52.102;5.242;2023-10-08T03:20:18;4.5;;;2.0;;
32451;SDS011;45528;52.102;5.242;2023-10-08T03:23:31;4.7;;;2.0;;
32451;SDS011;45528;52.102;5.242;2023-10-08T03:25:08;4.91;;;2.21;;
32451;SDS011;45528;52.102;5.242;2023-10-08T03:26:44;4.61;;;2.0;;
32451;SDS011;45528;52.102;5.242;2023-10-08T03:29:56;8.81;;;2.0;;
32451;SDS011;45528;52.102;5.242;2023-10-08T03:31:32;6.8;;;2.31;;
32451;SDS011;45528;52.102;5.242;2023-10-08T03:33:09;4.2;;;2.0;;
32451;SDS011;45528;52.102;5.242;2023-10-08T03:36:22;5.5;;;1.4;;
32451;SDS011;45528;52.102;5.242;2023-10-08T03:37:58;5.4;;;2.31;;
32451;SDS011;45528;52.102;5.242;2023-10-08T03:39:35;8.5;;;2.31;;
32451;SDS011;45528;52.102;5.242;2023-10-08T03:41:11;6.7;;;2.7;;
32451;SDS011;45528;52.102;5.242;2023-10-08T03:44:23;9.31;;;2.7;;
32451;SDS011;45528;52.102;5.242;2023-10-08T03:45:59;3.8;;;2.21;;
32451;SDS011;45528;52.102;5.242;2023-10-08T03:47:36;6.5;;;2.21;;
32451;SDS011;45528;52.102;5.242;2023-10-08T03:50:48;3.5;;;1.9;;
32451;SDS011;45528;52.102;5.242;2023-10-08T03:52:25;4.41;;;1.9;;
32451;SDS011;45528;52.102;5.242;2023-10-08T03:54:00;4.3;;;2.1;;
32451;SDS011;45528;52.102;5.242;2023-10-08T03:57:14;4.7;;;2.1;;
32451;SDS011;45528;52.102;5.242;2023-10-08T03:58:51;3.4;;;1.7;;
32451;SDS011;45528;52.102;5.242;2023-10-08T04:00:27;4.3;;;2.0;;
32451;SDS011;45528;52.102;5.242;2023-10-08T04:02:03;4.0;;;1.6;;
32451;SDS011;45528;52.102;5.242;2023-10-08T04:05:15;5.8;;;2.5;;
32451;SDS011;45528;52.102;5.242;2023-10-08T04:06:51;8.81;;;2.7;;
32451;SDS011;45528;52.102;5.242;2023-10-08T04:08:28;4.91;;;2.4;;
32451;SDS011;45528;52.102;5.242;2023-10-08T04:11:42;8.0;;;2.31;;
32451;SDS011;45528;52.102;5.242;2023-10-08T04:13:18;4.1;;;1.6;;
32451;SDS011;45528;52.102;5.242;2023-10-08T04:14:54;6.4;;;1.6;;
32451;SDS011;45528;52.102;5.242;2023-10-08T04:18:09;7.4;;;1.8;;
32451;SDS011;45528;52.102;5.242;2023-10-08T04:19:47;7.3;;;2.4;;
32451;SDS011;45528;52.102;5.242;2023-10-08T04:21:23;5.0;;;2.21;;
32451;SDS011;45528;52.102;5.242;2023-10-08T04:23:00;8.5;;;2.21;;
32451;SDS011;45528;52.102;5.242;2023-10-08T04:26:15;6.2;;;2.31;;
32451;SDS011;45528;52.102;5.242;2023-10-08T04:27:51;6.4;;;2.6;;
32451;SDS011;45528;52.102;5.242;2023-10-08T04:29:27;6.1;;;2.21;;
32451;SDS011;45528;52.102;5.242;2023-10-08T04:32:39;7.8;;;2.1;;
32451;SDS011;45528;52.102;5.242;2023-10-08T04:34:15;7.4;;;2.7;;
32451;SDS011;45528;52.102;5.242;2023-10-08T04:35:51;5.6;;;2.21;;
32451;SDS011;45528;52.102;5.242;2023-10-08T04:39:04;9.0;;;2.21;;
32451;SDS011;45528;52.102;5.242;2023-10-08T04:40:41;4.5;;;2.4;;
32451;SDS011;45528;52.102;5.242;2023-10-08T04:42:17;7.8;;;2.31;;
32451;SDS011;45528;52.102;5.242;2023-10-08T04:43:53;9.9;;;2.4;;
32451;SDS011;45528;52.102;5.242;2023-10-08T04:47:06;15.1;;;3.1;;
32451;SDS011;45528;52.102;5.242;2023-10-08T04:48:43;5.2;;;1.9;;
32451;SDS011;45528;52.102;5.242;2023-10-08T04:50:19;4.8;;;1.9;;
32451;SDS011;45528;52.102;5.242;2023-10-08T04:53:34;6.3;;;1.9;;
32451;SDS011;45528;52.102;5.242;2023-10-08T04:55:10;5.9;;;2.5;;
32451;SDS011;45528;52.102;5.242;2023-10-08T04:56:46;8.1;;;2.0;;
32451;SDS011;45528;52.102;5.242;2023-10-08T04:59:58;6.0;;;1.6;;
32451;SDS011;45528;52.102;5.242;2023-10-08T05:01:35;3.0;;;1.4;;
32451;SDS011;45528;52.102;5.242;2023-10-08T05:03:11;4.0;;;1.8;;
32451;SDS011;45528;52.102;5.242;2023-10-08T05:04:48;3.8;;;1.9;;
32451;SDS011;45528;52.102;5.242;2023-10-08T05:08:03;3.3;;;1.3;;
32451;SDS011;45528;52.102;5.242;2023-10-08T05:09:39;7.4;;;2.0;;
32451;SDS011;45528;52.102;5.242;2023-10-08T05:11:15;2.4;;;1.4;;
32451;SDS011;45528;52.102;5.242;2023-10-08T05:14:29;6.3;;;1.9;;
32451;SDS011;45528;52.102;5.242;2023-10-08T05:16:05;4.1;;;1.5;;
32451;SDS011;45528;52.102;5.242;2023-10-08T05:17:42;2.1;;;1.0;;
32451;SDS011;45528;52.102;5.242;2023-10-08T05:20:56;5.7;;;1.3;;
32451;SDS011;45528;52.102;5.242;2023-10-08T05:22:32;6.6;;;1.4;;
32451;SDS011;45528;52.102;5.242;2023-10-08T05:24:09;4.61;;;1.9;;
32451;SDS011;45528;52.102;5.242;2023-10-08T05:25:45;3.5;;;1.4;;
32451;SDS011;45528;52.102;5.242;2023-10-08T05:28:57;3.5;;;1.4;;
32451;SDS011;45528;52.102;5.242;2023-10-08T05:30:33;9.71;;;1.7;;
32451;SDS011;45528;52.102;5.242;2023-10-08T05:32:11;4.5;;;1.3;;
32451;SDS011;45528;52.102;5.242;2023-10-08T05:35:25;3.7;;;1.3;;
32451;SDS011;45528;52.102;5.242;2023-10-08T05:37:01;4.91;;;1.4;;
32451;SDS011;45528;52.102;5.242;2023-10-08T05:38:37;3.0;;;1.5;;
32451;SDS011;45528;52.102;5.242;2023-10-08T05:41:49;4.8;;;1.11;;
32451;SDS011;45528;52.102;5.242;2023-10-08T05:43:26;5.9;;;1.11;;
32451;SDS011;45528;52.102;5.242;2023-10-08T05:45:04;3.3;;;1.3;;
32451;SDS011;45528;52.102;5.242;2023-10-08T05:46:41;3.7;;;1.2;;
32451;SDS011;45528;52.102;5.242;2023-10-08T05:49:53;3.5;;;1.3;;
32451;SDS011;45528;52.102;5.242;2023-10-08T05:51:29;7.2;;;1.4;;
32451;SDS011;45528;52.102;5.242;2023-10-08T05:53:06;4.41;;;1.11;;
32451;SDS011;45528;52.102;5.242;2023-10-08T05:56:18;2.9;;;1.4;;
32451;SDS011;45528;52.102;5.242;2023-10-08T05:57:55;4.7;;;1.11;;
32451;SDS011;45528;52.102;5.242;2023-10-08T05:59:43;2.1;;;1.3;;
32451;SDS011;45528;52.102;5.242;2023-10-08T06:01:21;4.7;;;1.8;;
32451;SDS011;45528;52.102;5.242;2023-10-08T06:04:33;4.7;;;1.8;;
32451;SDS011;45528;52.102;5.242;2023-10-08T06:06:09;2.9;;;1.3;;
32451;SDS011;45528;52.102;5.242;2023-10-08T06:07:46;2.31;;;1.3;;
32451;SDS011;45528;52.102;5.242;2023-10-08T06:11:01;1.9;;;1.11;;
32451;SDS011;45528;52.102;5.242;2023-10-08T06:12:37;3.0;;;1.6;;
32451;SDS011;45528;52.102;5.242;2023-10-08T06:14:13;5.11;;;1.7;;
32451;SDS011;45528;52.102;5.242;2023-10-08T06:17:27;3.9;;;1.8;;
32451;SDS011;45528;52.102;5.242;2023-10-08T06:19:03;8.9;;;1.7;;
32451;SDS011;45528;52.102;5.242;2023-10-08T06:20:39;5.9;;;1.5;;
32451;SDS011;45528;52.102;5.242;2023-10-08T06:22:15;5.11;;;2.21;;
32451;SDS011;45528;52.102;5.242;2023-10-08T06:25:27;6.6;;;1.4;;
32451;SDS011;45528;52.102;5.242;2023-10-08T06:27:04;4.7;;;2.0;;
32451;SDS011;45528;52.102;5.242;2023-10-08T06:28:41;3.6;;;1.7;;
32451;SDS011;45528;52.102;5.242;2023-10-08T06:31:56;3.3;;;1.4;;
32451;SDS011;45528;52.102;5.242;2023-10-08T06:33:34;3.3;;;1.4;;
32451;SDS011;45528;52.102;5.242;2023-10-08T06:35:10;4.0;;;1.3;;
32451;SDS011;45528;52.102;5.242;2023-10-08T06:36:47;4.0;;;1.11;;
32451;SDS011;45528;52.102;5.242;2023-10-08T06:40:01;7.9;;;1.2;;
32451;SDS011;45528;52.102;5.242;2023-10-08T06:41:37;2.9;;;1.11;;
32451;SDS011;45528;52.102;5.242;2023-10-08T06:43:13;2.8;;;0.9;;
32451;SDS011;45528;52.102;5.242;2023-10-08T06:46:25;3.4;;;1.2;;
32451;SDS011;45528;52.102;5.242;2023-10-08T06:48:01;7.9;;;1.0;;
32451;SDS011;45528;52.102;5.242;2023-10-08T06:49:38;4.3;;;1.11;;
32451;SDS011;45528;52.102;5.242;2023-10-08T06:52:51;3.1;;;0.9;;
32451;SDS011;45528;52.102;5.242;2023-10-08T06:54:27;6.3;;;1.0;;
32451;SDS011;45528;52.102;5.242;2023-10-08T06:56:04;2.5;;;0.8;;
32451;SDS011;45528;52.102;5.242;2023-10-08T06:59:16;3.4;;;1.3;;
32451;SDS011;45528;52.102;5.242;2023-10-08T07:00:53;2.4;;;0.8;;
32451;SDS011;45528;52.102;5.242;2023-10-08T07:02:29;1.8;;;0.8;;
32451;SDS011;45528;52.102;5.242;2023-10-08T07:04:05;3.5;;;1.11;;
32451;SDS011;45528;52.102;5.242;2023-10-08T07:07:20;6.0;;;1.0;;
32451;SDS011;45528;52.102;5.242;2023-10-08T07:08:57;2.1;;;1.2;;
32451;SDS011;45528;52.102;5.242;2023-10-08T07:10:34;2.9;;;0.8;;
32451;SDS011;45528;52.102;5.242;2023-10-08T07:13:47;1.9;;;0.7;;
32451;SDS011;45528;52.102;5.242;2023-10-08T07:15:24;13.3;;;1.2;;
32451;SDS011;45528;52.102;5.242;2023-10-08T07:17:00;2.31;;;0.8;;
32451;SDS011;45528;52.102;5.242;2023-10-08T07:20:14;3.7;;;0.8;;
32451;SDS011;45528;52.102;5.242;2023-10-08T07:21:50;1.9;;;0.9;;
32451;SDS011;45528;52.102;5.242;2023-10-08T07:23:27;1.11;;;0.7;;
32451;SDS011;45528;52.102;5.242;2023-10-08T07:25:04;4.91;;;1.0;;
32451;SDS011;45528;52.102;5.242;2023-10-08T07:28:18;1.5;;;0.6;;
32451;SDS011;45528;52.102;5.242;2023-10-08T07:29:54;0.9;;;0.6;;
32451;SDS011;45528;52.102;5.242;2023-10-08T07:31:30;2.21;;;0.8;;
32451;SDS011;45528;52.102;5.242;2023-10-08T07:34:42;6.7;;;0.6;;
32451;SDS011;45528;52.102;5.242;2023-10-08T07:36:18;1.3;;;0.4;;
32451;SDS011;45528;52.102;5.242;2023-10-08T07:37:54;1.0;;;0.6;;
32451;SDS011;45528;52.102;5.242;2023-10-08T07:41:08;1.0;;;0.4;;
32451;SDS011;45528;52.102;5.242;2023-10-08T07:42:45;1.6;;;0.7;;
32451;SDS011;45528;52.102;5.242;2023-10-08T07:44:21;1.0;;;0.5;;
32451;SDS011;45528;52.102;5.242;2023-10-08T07:45:58;0.8;;;0.5;;
32451;SDS011;45528;52.102;5.242;2023-10-08T07:49:10;3.3;;;0.8;;
32451;SDS011;45528;52.102;5.242;2023-10-08T07:50:46;1.8;;;1.0;;
32451;SDS011;45528;52.102;5.242;2023-10-08T07:52:22;2.31;;;0.9;;
32451;SDS011;45528;52.102;5.242;2023-10-08T07:55:35;2.31;;;0.9;;
32451;SDS011;45528;52.102;5.242;2023-10-08T07:57:11;1.8;;;1.0;;
32451;SDS011;45528;52.102;5.242;2023-10-08T07:58:48;1.2;;;0.8;;
32451;SDS011;45528;52.102;5.242;2023-10-08T08:02:00;3.7;;;1.11;;
32451;SDS011;45528;52.102;5.242;2023-10-08T08:03:36;2.5;;;1.4;;
32451;SDS011;45528;52.102;5.242;2023-10-08T08:05:12;2.7;;;1.4;;
32451;SDS011;45528;52.102;5.242;2023-10-08T08:06:50;2.6;;;1.6;;
32451;SDS011;45528;52.102;5.242;2023-10-08T08:10:03;5.2;;;1.9;;
32451;SDS011;45528;52.102;5.242;2023-10-08T08:11:40;3.0;;;1.8;;
32451;SDS011;45528;52.102;5.242;2023-10-08T08:13:16;1.9;;;1.5;;
32451;SDS011;45528;52.102;5.242;2023-10-08T08:16:28;4.2;;;1.8;;
32451;SDS011;45528;52.102;5.242;2023-10-08T08:18:04;2.31;;;1.5;;
32451;SDS011;45528;52.102;5.242;2023-10-08T08:19:41;4.0;;;2.1;;
32451;SDS011;45528;52.102;5.242;2023-10-08T08:22:56;3.0;;;1.7;;
32451;SDS011;45528;52.102;5.242;2023-10-08T08:24:32;4.1;;;1.5;;
32451;SDS011;45528;52.102;5.242;2023-10-08T08:26:08;2.9;;;1.5;;
32451;SDS011;45528;52.102;5.242;2023-10-08T08:27:44;4.2;;;2.0;;
32451;SDS011;45528;52.102;5.242;2023-10-08T08:31:01;3.0;;;1.7;;
32451;SDS011;45528;52.102;5.242;2023-10-08T08:32:38;3.0;;;1.5;;
32451;SDS011;45528;52.102;5.242;2023-10-08T08:34:15;2.9;;;1.3;;
32451;SDS011;45528;52.102;5.242;2023-10-08T08:37:35;2.6;;;1.5;;
32451;SDS011;45528;52.102;5.242;2023-10-08T08:39:12;3.2;;;1.7;;
32451;SDS011;45528;52.102;5.242;2023-10-08T08:40:48;3.0;;;1.5;;
32451;SDS011;45528;52.102;5.242;2023-10-08T08:42:24;2.0;;;1.11;;
32451;SDS011;45528;52.102;5.242;2023-10-08T08:45:39;3.0;;;1.4;;
32451;SDS011;45528;52.102;5.242;2023-10-08T08:47:15;3.6;;;1.4;;
32451;SDS011;45528;52.102;5.242;2023-10-08T08:48:53;1.11;;;0.9;;
32451;SDS011;45528;52.102;5.242;2023-10-08T08:52:11;1.9;;;1.11;;
32451;SDS011;45528;52.102;5.242;2023-10-08T08:53:48;2.0;;;1.11;;
32451;SDS011;45528;52.102;5.242;2023-10-08T08:55:24;1.9;;;0.9;;
32451;SDS011;45528;52.102;5.242;2023-10-08T08:57:02;3.2;;;1.11;;
32451;SDS011;45528;52.102;5.242;2023-10-08T09:00:17;1.2;;;0.8;;
32451;SDS011;45528;52.102;5.242;2023-10-08T09:01:54;2.8;;;0.9;;
32451;SDS011;45528;52.102;5.242;2023-10-08T09:03:33;1.8;;;1.2;;
32451;SDS011;45528;52.102;5.242;2023-10-08T09:06:47;2.4;;;1.0;;
32451;SDS011;45528;52.102;5.242;2023-10-08T09:08:27;2.6;;;1.11;;
32451;SDS011;45528;52.102;5.242;2023-10-08T09:10:04;1.9;;;1.2;;
32451;SDS011;45528;52.102;5.242;2023-10-08T09:11:41;1.8;;;1.0;;
32451;SDS011;45528;52.102;5.242;2023-10-08T09:15:00;1.8;;;0.8;;
32451;SDS011;45528;52.102;5.242;2023-10-08T09:16:36;1.2;;;0.8;;
32451;SDS011;45528;52.102;5.242;2023-10-08T09:18:13;1.6;;;1.11;;
32451;SDS011;45528;52.102;5.242;2023-10-08T09:21:29;1.2;;;0.8;;
32451;SDS011;45528;52.102;5.242;2023-10-08T09:23:06;2.0;;;1.0;;
32451;SDS011;45528;52.102;5.242;2023-10-08T09:24:43;2.8;;;1.0;;
32451;SDS011;45528;52.102;5.242;2023-10-08T09:26:22;1.3;;;0.8;;
32451;SDS011;45528;52.102;5.242;2023-10-08T09:29:35;1.3;;;0.8;;
32451;SDS011;45528;52.102;5.242;2023-10-08T09:31:12;1.9;;;1.11;;
32451;SDS011;45528;52.102;5.242;2023-10-08T09:32:49;1.11;;;0.9;;
32451;SDS011;45528;52.102;5.242;2023-10-08T09:36:03;4.41;;;1.2;;
32451;SDS011;45528;52.102;5.242;2023-10-08T09:37:40;1.9;;;1.11;;
32451;SDS011;45528;52.102;5.242;2023-10-08T09:39:17;1.8;;;1.0;;
32451;SDS011;45528;52.102;5.242;2023-10-08T09:40:55;2.4;;;1.3;;
32451;SDS011;45528;52.102;5.242;2023-10-08T09:44:12;2.6;;;1.2;;
32451;SDS011;45528;52.102;5.242;2023-10-08T09:45:50;1.8;;;0.9;;
32451;SDS011;45528;52.102;5.242;2023-10-08T09:47:46;1.5;;;0.9;;
32451;SDS011;45528;52.102;5.242;2023-10-08T09:49:31;1.9;;;1.11;;
32451;SDS011;45528;52.102;5.242;2023-10-08T09:53:04;1.7;;;0.8;;
32451;SDS011;45528;52.102;5.242;2023-10-08T09:54:44;2.4;;;1.0;;
32451;SDS011;45528;52.102;5.242;2023-10-08T09:56:27;2.5;;;0.9;;
32451;SDS011;45528;52.102;5.242;2023-10-08T09:58:05;1.7;;;1.11;;
32451;SDS011;45528;52.102;5.242;2023-10-08T09:59:44;1.7;;;1.0;;
32451;SDS011;45528;52.102;5.242;2023-10-08T10:03:01;2.1;;;1.11;;
32451;SDS011;45528;52.102;5.242;2023-10-08T10:04:41;3.4;;;1.11;;
32451;SDS011;45528;52.102;5.242;2023-10-08T10:06:19;2.21;;;1.0;;
32451;SDS011;45528;52.102;5.242;2023-10-08T10:09:33;4.41;;;1.11;;
32451;SDS011;45528;52.102;5.242;2023-10-08T10:11:09;1.0;;;0.7;;
32451;SDS011;45528;52.102;5.242;2023-10-08T10:12:46;3.0;;;1.3;;
32451;SDS011;45528;52.102;5.242;2023-10-08T10:14:24;1.9;;;0.9;;
32451;SDS011;45528;52.102;5.242;2023-10-08T10:17:37;2.0;;;1.0;;
32451;SDS011;45528;52.102;5.242;2023-10-08T10:19:16;1.7;;;0.9;;
32451;SDS011;45528;52.102;5.242;2023-10-08T10:20:56;1.5;;;0.8;;
32451;SDS011;45528;52.102;5.242;2023-10-08T10:24:21;1.5;;;0.9;;
32451;SDS011;45528;52.102;5.242;2023-10-08T10:25:58;3.4;;;1.0;;
32451;SDS011;45528;52.102;5.242;2023-10-08T10:27:34;2.21;;;0.9;;
32451;SDS011;45528;52.102;5.242;2023-10-08T10:29:20;1.5;;;1.0;;
32451;SDS011;45528;52.102;5.242;2023-10-08T10:32:33;1.0;;;0.9;;
32451;SDS011;45528;52.102;5.242;2023-10-08T10:34:09;1.6;;;0.9;;
32451;SDS011;45528;52.102;5.242;2023-10-08T10:35:50;0.9;;;0.8;;
32451;SDS011;45528;52.102;5.242;2023-10-08T10:37:27;2.5;;;1.3;;
32451;SDS011;45528;52.102;5.242;2023-10-08T10:40:41;1.8;;;1.0;;
32451;SDS011;45528;52.102;5.242;2023-10-08T10:42:17;2.4;;;1.4;;
32451;SDS011;45528;52.102;5.242;2023-10-08T10:43:54;2.7;;;1.2;;
32451;SDS011;45528;52.102;5.242;2023-10-08T10:47:07;3.7;;;1.7;;
32451;SDS011;45528;52.102;5.242;2023-10-08T10:48:43;2.21;;;1.0;;
32451;SDS011;45528;52.102;5.242;2023-10-08T10:50:19;2.31;;;1.4;;
32451;SDS011;45528;52.102;5.242;2023-10-08T10:53:31;2.4;;;1.3;;
32451;SDS011;45528;52.102;5.242;2023-10-08T10:55:08;2.7;;;1.2;;
32451;SDS011;45528;52.102;5.242;2023-10-08T10:56:44;2.21;;;1.6;;
32451;SDS011;45528;52.102;5.242;2023-10-08T10:58:20;1.8;;;1.2;;
32451;SDS011;45528;52.102;5.242;2023-10-08T11:01:38;2.21;;;1.2;;
32451;SDS011;45528;52.102;5.242;2023-10-08T11:03:15;2.1;;;1.2;;
32451;SDS011;45528;52.102;5.242;2023-10-08T11:04:51;2.7;;;1.6;;
32451;SDS011;45528;52.102;5.242;2023-10-08T11:08:04;2.9;;;1.7;;
32451;SDS011;45528;52.102;5.242;2023-10-08T11:09:42;2.7;;;1.6;;
32451;SDS011;45528;52.102;5.242;2023-10-08T11:11:25;2.8;;;1.6;;
32451;SDS011;45528;52.102;5.242;2023-10-08T11:13:02;4.0;;;1.8;;
32451;SDS011;45528;52.102;5.242;2023-10-08T11:16:19;3.0;;;1.7;;
32451;SDS011;45528;52.102;5.242;2023-10-08T11:17:59;2.31;;;1.7;;
32451;SDS011;45528;52.102;5.242;2023-10-08T11:19:35;4.0;;;1.6;;
32451;SDS011;45528;52.102;5.242;2023-10-08T11:22:47;3.8;;;1.7;;
32451;SDS011;45528;52.102;5.242;2023-10-08T11:24:27;2.7;;;1.8;;
32451;SDS011;45528;52.102;5.242;2023-10-08T11:26:04;2.8;;;1.5;;
32451;SDS011;45528;52.102;5.242;2023-10-08T11:27:41;7.0;;;2.0;;
32451;SDS011;45528;52.102;5.242;2023-10-08T11:30:54;3.3;;;2.1;;
32451;SDS011;45528;52.102;5.242;2023-10-08T11:32:31;3.9;;;2.1;;
32451;SDS011;45528;52.102;5.242;2023-10-08T11:34:07;4.3;;;2.0;;
32451;SDS011;45528;52.102;5.242;2023-10-08T11:37:34;2.5;;;1.7;;
32451;SDS011;45528;52.102;5.242;2023-10-08T11:39:11;2.7;;;1.7;;
32451;SDS011;45528;52.102;5.242;2023-10-08T11:40:47;3.5;;;1.9;;
32451;SDS011;45528;52.102;5.242;2023-10-08T11:42:23;3.0;;;1.6;;
32451;SDS011;45528;52.102;5.242;2023-10-08T11:45:35;4.8;;;2.31;;
32451;SDS011;45528;52.102;5.242;2023-10-08T11:47:11;4.7;;;2.21;;
32451;SDS011;45528;52.102;5.242;2023-10-08T11:48:47;4.3;;;1.8;;
32451;SDS011;45528;52.102;5.242;2023-10-08T11:52:01;3.7;;;1.8;;
32451;SDS011;45528;52.102;5.242;2023-10-08T11:53:38;2.9;;;1.9;;
32451;SDS011;45528;52.102;5.242;2023-10-08T11:55:14;3.4;;;2.21;;
32451;SDS011;45528;52.102;5.242;2023-10-08T11:58:27;4.0;;;1.9;;
32451;SDS011;45528;52.102;5.242;2023-10-08T12:00:03;4.1;;;1.9;;
32451;SDS011;45528;52.102;5.242;2023-10-08T12:01:40;3.7;;;2.1;;
32451;SDS011;45528;52.102;5.242;2023-10-08T12:03:16;8.5;;;2.0;;
32451;SDS011;45528;52.102;5.242;2023-10-08T12:06:29;2.7;;;1.7;;
32451;SDS011;45528;52.102;5.242;2023-10-08T12:08:05;8.1;;;2.5;;
32451;SDS011;45528;52.102;5.242;2023-10-08T12:09:41;6.9;;;2.1;;
32451;SDS011;45528;52.102;5.242;2023-10-08T12:12:53;4.5;;;2.1;;
32451;SDS011;45528;52.102;5.242;2023-10-08T12:14:30;4.91;;;2.0;;
32451;SDS011;45528;52.102;5.242;2023-10-08T12:16:06;3.4;;;1.6;;
32451;SDS011;45528;52.102;5.242;2023-10-08T12:19:19;3.2;;;1.7;;
32451;SDS011;45528;52.102;5.242;2023-10-08T12:20:55;4.2;;;2.21;;
32451;SDS011;45528;52.102;5.242;2023-10-08T12:22:31;6.7;;;2.0;;
32451;SDS011;45528;52.102;5.242;2023-10-08T12:24:07;4.0;;;2.0;;
32451;SDS011;45528;52.102;5.242;2023-10-08T12:27:19;4.3;;;1.9;;
32451;SDS011;45528;52.102;5.242;2023-10-08T12:28:55;3.4;;;1.7;;
32451;SDS011;45528;52.102;5.242;2023-10-08T12:30:31;2.8;;;1.4;;
32451;SDS011;45528;52.102;5.242;2023-10-08T12:33:44;3.1;;;1.4;;
32451;SDS011;45528;52.102;5.242;2023-10-08T12:35:21;2.31;;;1.2;;
32451;SDS011;45528;52.102;5.242;2023-10-08T12:36:57;2.4;;;1.11;;
32451;SDS011;45528;52.102;5.242;2023-10-08T12:40:09;3.1;;;1.2;;
32451;SDS011;45528;52.102;5.242;2023-10-08T12:41:46;1.9;;;1.0;;
32451;SDS011;45528;52.102;5.242;2023-10-08T12:43:22;4.2;;;1.6;;
32451;SDS011;45528;52.102;5.242;2023-10-08T12:46:37;2.8;;;1.2;;
32451;SDS011;45528;52.102;5.242;2023-10-08T12:48:13;2.9;;;1.11;;
32451;SDS011;45528;52.102;5.242;2023-10-08T12:49:49;4.91;;;1.2;;
32451;SDS011;45528;52.102;5.242;2023-10-08T12:51:25;4.8;;;1.2;;
32451;SDS011;45528;52.102;5.242;2023-10-08T12:54:38;2.21;;;1.0;;